Time;durP1;ratioP1;P1;durP2;ratioP2;P2;SDS_P1;SDS_P2;PMS_P1;PMS_P2;Temp;Humidity;BMP_temperature;BMP_pressure;BME280_temperature;BME280_humidity;BME280_pressure;Samples;Min_cycle;Max_cycle;Signal;HPM_P1;HPM_P2
2024/01/08 00:00:45;;;;;;;;;;;-2.20;100.00;;;;;;6057480;23;19922;-72
2024/01/08 00:03:11;;;;;;;;;;;-2.20;100.00;;;;;;6057759;23;19985;-73
2024/01/08 00:05:39;;;;;;;;;;;-2.10;100.00;;;;;;6058015;23;20519;-72
2024/01/08 00:08:06;;;;;;;;;;;-2.10;100.00;;;;;;6032939;23;19976;-73
2024/01/08 00:10:34;;;;;;;;;;;-2.10;100.00;;;;;;6031882;23;19932;-73
2024/01/08 00:13:00;;;;;;;;;;;-2.10;100.00;;;;;;6033174;23;19921;-73
2024/01/08 00:15:27;;;;;;;;;;;-2.10;100.00;;;;;;6057825;23;20316;-74
2024/01/08 00:17:54;;;;;;;;;;;-2.10;100.00;;;;;;6057804;23;19926;-73
2024/01/08 00:20:21;;;;;;;;;;;-2.10;100.00;;;;;;6058990;23;20410;-73
2024/01/08 00:22:47;;;;;;;;;;;-2.10;100.00;;;;;;6057359;23;19927;-73
2024/01/08 00:25:14;;;;;;;;;;;-2.10;100.00;;;;;;6056070;23;19921;-73
2024/01/08 00:27:41;;;;;;;;;;;-2.10;100.00;;;;;;6058244;23;20008;-73
2024/01/08 00:30:08;;;;;;;;;;;-2.10;100.00;;;;;;6058839;23;19943;-73
2024/01/08 00:32:35;;;;;;;;;;;-2.10;100.00;;;;;;6058602;23;19961;-73
2024/01/08 00:35:04;;;;;;;;;;;-2.10;100.00;;;;;;6058840;23;20304;-66
2024/01/08 00:37:33;;;;;;;;;;;-2.10;100.00;;;;;;6058821;23;19921;-66
2024/01/08 00:39:59;;;;;;;;;;;-2.10;100.00;;;;;;6058772;23;19996;-66
2024/01/08 00:42:26;;;;;;;;;;;-2.10;100.00;;;;;;6032921;23;19928;-66
2024/01/08 00:44:53;;;;;;;;;;;-2.10;100.00;;;;;;6058250;23;19925;-70
2024/01/08 00:47:20;;;;;;;;;;;-2.10;100.00;;;;;;6032575;23;20309;-66
2024/01/08 00:49:47;;;;;;;;;;;-2.10;100.00;;;;;;6058837;23;20331;-66
2024/01/08 00:52:13;;;;;;;;;;;-2.10;100.00;;;;;;6057623;23;20391;-67
2024/01/08 00:54:40;;;;;;;;;;;-2.10;100.00;;;;;;6057913;23;19957;-66
2024/01/08 00:57:07;;;;;;;;;;;-2.10;100.00;;;;;;6058015;23;19977;-66
2024/01/08 00:59:34;;;;;;;;;;;-2.10;100.00;;;;;;6032629;23;20474;-66
2024/01/08 01:02:00;;;;;;;;;;;-2.10;100.00;;;;;;6057616;23;19949;-66
2024/01/08 01:04:27;;;;;;;;;;;-2.10;100.00;;;;;;6057843;23;19921;-66
2024/01/08 01:06:55;;;;;;;;;;;-2.10;100.00;;;;;;6049847;23;19922;-66
2024/01/08 01:09:21;;;;;;;;;;;-2.10;100.00;;;;;;6058006;23;19925;-68
2024/01/08 01:11:48;;;;;;;;;;;-2.10;100.00;;;;;;6080189;23;19985;-67
2024/01/08 01:14:15;;;;;;;;;;;-2.10;100.00;;;;;;6080824;23;19921;-66
2024/01/08 01:16:42;;;;;;;;;;;-2.10;100.00;;;;;;6080439;23;19949;-67
2024/01/08 01:19:10;;;;;;;;;;;-2.10;100.00;;;;;;6057765;23;19992;-66
2024/01/08 01:21:37;;;;;;;;;;;-2.10;100.00;;;;;;6057944;23;19957;-67
2024/01/08 01:24:05;;;;;;;;;;;-2.10;100.00;;;;;;6057868;23;19921;-66
2024/01/08 01:26:32;;;;;;;;;;;-2.10;100.00;;;;;;6057491;23;20001;-66
2024/01/08 01:28:58;;;;;;;;;;;-2.10;100.00;;;;;;6057517;23;19921;-66
2024/01/08 01:31:25;;;;;;;;;;;-2.10;100.00;;;;;;6058006;23;19997;-66
2024/01/08 01:33:52;;;;;;;;;;;-2.10;100.00;;;;;;6080552;23;19976;-66
2024/01/08 01:36:19;;;;;;;;;;;-2.10;100.00;;;;;;6057359;23;19927;-66
2024/01/08 01:38:46;;;;;;;;;;;-2.10;100.00;;;;;;6057887;23;19945;-66
2024/01/08 01:41:13;;;;;;;;;;;-2.10;100.00;;;;;;6058522;23;19922;-66
2024/01/08 01:43:39;;;;;;;;;;;-2.20;100.00;;;;;;6058281;23;19922;-67
2024/01/08 01:46:15;;;;;;;;;;;-2.20;100.00;;;;;;6058119;23;20562;-67
2024/01/08 01:48:42;;;;;;;;;;;-2.20;100.00;;;;;;6057517;23;19926;-67
2024/01/08 01:51:09;;;;;;;;;;;-2.20;100.00;;;;;;6058015;23;20535;-66
2024/01/08 01:53:35;;;;;;;;;;;-2.30;100.00;;;;;;6057701;23;19952;-66
2024/01/08 01:56:02;;;;;;;;;;;-2.30;100.00;;;;;;6056837;23;19921;-66
2024/01/08 01:58:29;;;;;;;;;;;-2.30;100.00;;;;;;6057387;23;20575;-65
2024/01/08 02:00:56;;;;;;;;;;;-2.30;100.00;;;;;;6058403;23;20367;-66
2024/01/08 02:03:23;;;;;;;;;;;-2.40;100.00;;;;;;6058175;23;20000;-66
2024/01/08 02:05:50;;;;;;;;;;;-2.40;100.00;;;;;;6059189;23;19928;-65
2024/01/08 02:08:18;;;;;;;;;;;-2.40;100.00;;;;;;6059984;23;19928;-65
2024/01/08 02:10:44;;;;;;;;;;;-2.40;100.00;;;;;;6059115;23;19926;-66
2024/01/08 02:13:11;;;;;;;;;;;-2.40;100.00;;;;;;6033820;23;19921;-65
2024/01/08 02:15:38;;;;;;;;;;;-2.40;100.00;;;;;;6059202;23;20323;-65
2024/01/08 02:18:05;;;;;;;;;;;-2.40;100.00;;;;;;6033882;23;20000;-65
2024/01/08 02:20:32;;;;;;;;;;;-2.40;100.00;;;;;;6059536;23;19925;-66
2024/01/08 02:22:59;;;;;;;;;;;-2.40;100.00;;;;;;6034490;23;19922;-66
2024/01/08 02:25:26;;;;;;;;;;;-2.50;100.00;;;;;;6033740;23;20672;-66
2024/01/08 02:27:53;;;;;;;;;;;-2.50;100.00;;;;;;6057213;23;19973;-66
2024/01/08 02:30:20;;;;;;;;;;;-2.50;100.00;;;;;;6058729;23;20610;-66
2024/01/08 02:32:47;;;;;;;;;;;-2.50;100.00;;;;;;6059183;23;19922;-66
2024/01/08 02:35:14;;;;;;;;;;;-2.50;100.00;;;;;;6059181;23;20338;-66
2024/01/08 02:37:40;;;;;;;;;;;-2.50;100.00;;;;;;6058703;23;19928;-66
2024/01/08 02:40:07;;;;;;;;;;;-2.50;100.00;;;;;;6034090;23;20363;-66
2024/01/08 02:42:37;;;;;;;;;;;-2.50;100.00;;;;;;6033212;23;19929;-66
2024/01/08 02:45:04;;;;;;;;;;;-2.60;100.00;;;;;;6030805;23;19921;-66
2024/01/08 02:47:33;;;;;;;;;;;-2.50;100.00;;;;;;6056124;23;19922;-67
2024/01/08 02:50:00;;;;;;;;;;;-2.50;100.00;;;;;;6057542;23;19950;-66
2024/01/08 02:52:26;;;;;;;;;;;-2.50;100.00;;;;;;6031645;23;20008;-66
2024/01/08 02:54:53;;;;;;;;;;;-2.50;100.00;;;;;;6058385;23;19981;-67
2024/01/08 02:57:20;;;;;;;;;;;-2.50;100.00;;;;;;6058523;23;19977;-66
2024/01/08 02:59:46;;;;;;;;;;;-2.60;100.00;;;;;;6055724;23;19949;-66
2024/01/08 03:02:13;;;;;;;;;;;-2.60;100.00;;;;;;6056517;23;20005;-67
2024/01/08 03:04:40;;;;;;;;;;;-2.60;100.00;;;;;;6032625;23;19999;-66
2024/01/08 03:07:07;;;;;;;;;;;-2.60;100.00;;;;;;6052795;23;19922;-66
2024/01/08 03:09:33;;;;;;;;;;;-2.60;100.00;;;;;;6057854;23;19929;-66
2024/01/08 03:12:00;;;;;;;;;;;-2.50;100.00;;;;;;6057674;23;20008;-67
2024/01/08 03:14:27;;;;;;;;;;;-2.60;100.00;;;;;;6080787;23;19922;-67
2024/01/08 03:16:54;;;;;;;;;;;-2.50;100.00;;;;;;6058476;23;19921;-67
2024/01/08 03:19:21;;;;;;;;;;;-2.60;100.00;;;;;;6058446;23;19917;-67
2024/01/08 03:21:48;;;;;;;;;;;-2.60;100.00;;;;;;6058128;23;20363;-67
2024/01/08 03:24:14;;;;;;;;;;;-2.60;100.00;;;;;;6058193;23;20587;-67
2024/01/08 03:26:41;;;;;;;;;;;-2.60;100.00;;;;;;6080085;23;19988;-66
2024/01/08 03:29:08;;;;;;;;;;;-2.60;100.00;;;;;;6080160;23;19922;-66
2024/01/08 03:31:41;;;;;;;;;;;-2.60;100.00;;;;;;6057709;23;19922;-66
2024/01/08 03:34:08;;;;;;;;;;;-2.60;100.00;;;;;;6056385;23;19996;-67
2024/01/08 03:36:35;;;;;;;;;;;-2.60;100.00;;;;;;6056169;23;20439;-67
2024/01/08 03:39:02;;;;;;;;;;;-2.60;100.00;;;;;;6057655;23;19922;-66
2024/01/08 03:41:29;;;;;;;;;;;-2.70;100.00;;;;;;6079966;23;20550;-66
2024/01/08 03:43:56;;;;;;;;;;;-2.70;100.00;;;;;;6057930;23;19949;-67
2024/01/08 03:46:22;;;;;;;;;;;-2.70;100.00;;;;;;6055858;23;19928;-67
2024/01/08 03:48:49;;;;;;;;;;;-2.70;100.00;;;;;;6058374;23;19941;-66
2024/01/08 03:51:16;;;;;;;;;;;-2.70;100.00;;;;;;6056499;23;20008;-67
2024/01/08 03:53:42;;;;;;;;;;;-2.70;100.00;;;;;;6057662;23;19972;-67
2024/01/08 03:56:09;;;;;;;;;;;-2.70;100.00;;;;;;6058074;23;19951;-67
2024/01/08 03:58:37;;;;;;;;;;;-2.70;100.00;;;;;;6056848;23;19926;-67
2024/01/08 04:01:04;;;;;;;;;;;-2.80;100.00;;;;;;6056698;23;19997;-67
2024/01/08 04:03:31;;;;;;;;;;;-2.80;100.00;;;;;;6057428;23;19993;-67
2024/01/08 04:05:57;;;;;;;;;;;-2.80;100.00;;;;;;6056477;23;19921;-66
2024/01/08 04:08:24;;;;;;;;;;;-2.80;100.00;;;;;;6056942;23;20692;-67
2024/01/08 04:10:51;;;;;;;;;;;-2.80;100.00;;;;;;6057581;23;20390;-66
2024/01/08 04:13:18;;;;;;;;;;;-2.80;100.00;;;;;;6057610;23;20320;-66
2024/01/08 04:15:44;;;;;;;;;;;-2.80;100.00;;;;;;6057607;23;19921;-66
2024/01/08 04:18:13;;;;;;;;;;;-2.90;100.00;;;;;;6056882;23;19956;-67
2024/01/08 04:20:40;;;;;;;;;;;-2.90;100.00;;;;;;6057247;23;19921;-67
2024/01/08 04:23:07;;;;;;;;;;;-2.90;100.00;;;;;;6056679;23;20312;-67
2024/01/08 04:25:34;;;;;;;;;;;-2.90;100.00;;;;;;6056604;23;19921;-67
2024/01/08 04:28:01;;;;;;;;;;;-2.90;100.00;;;;;;6056627;23;19921;-67
2024/01/08 04:30:27;;;;;;;;;;;-3.00;100.00;;;;;;6057626;23;19918;-67
2024/01/08 04:32:54;;;;;;;;;;;-3.00;100.00;;;;;;6057342;23;19996;-67
2024/01/08 04:35:21;;;;;;;;;;;-3.10;100.00;;;;;;6056886;23;20462;-67
2024/01/08 04:37:48;;;;;;;;;;;-3.10;100.00;;;;;;6029933;23;19928;-67
2024/01/08 04:40:15;;;;;;;;;;;-3.10;100.00;;;;;;6057614;23;19922;-67
2024/01/08 04:42:41;;;;;;;;;;;-3.10;100.00;;;;;;6057349;23;19925;-67
2024/01/08 04:45:08;;;;;;;;;;;-3.10;100.00;;;;;;6056562;23;19925;-67
2024/01/08 04:47:35;;;;;;;;;;;-3.10;100.00;;;;;;6055635;23;20602;-67
2024/01/08 04:50:02;;;;;;;;;;;-3.20;100.00;;;;;;6056483;23;19922;-67
2024/01/08 04:52:29;;;;;;;;;;;-3.20;100.00;;;;;;6056909;23;19921;-67
2024/01/08 04:54:56;;;;;;;;;;;-3.20;100.00;;;;;;6057194;23;19921;-66
2024/01/08 04:57:23;;;;;;;;;;;-3.20;100.00;;;;;;6057557;23;19973;-66
2024/01/08 04:59:50;;;;;;;;;;;-3.30;100.00;;;;;;6057561;23;19922;-67
2024/01/08 05:02:16;;;;;;;;;;;-3.40;100.00;;;;;;6031628;23;19925;-67
2024/01/08 05:04:43;;;;;;;;;;;-3.40;100.00;;;;;;6057330;23;20590;-66
2024/01/08 05:07:12;;;;;;;;;;;-3.40;100.00;;;;;;6056363;23;19973;-67
2024/01/08 05:09:39;;;;;;;;;;;-3.50;100.00;;;;;;6057149;23;19933;-67
2024/01/08 05:12:06;;;;;;;;;;;-3.50;100.00;;;;;;6055367;23;19917;-67
2024/01/08 05:14:32;;;;;;;;;;;-3.50;100.00;;;;;;6056636;23;19917;-66
2024/01/08 05:16:59;;;;;;;;;;;-3.50;100.00;;;;;;6031853;23;20655;-67
2024/01/08 05:19:26;;;;;;;;;;;-3.60;100.00;;;;;;6031990;23;19925;-67
2024/01/08 05:21:53;;;;;;;;;;;-3.70;100.00;;;;;;6057129;23;19988;-67
2024/01/08 05:24:20;;;;;;;;;;;-3.70;100.00;;;;;;6058693;23;19925;-66
2024/01/08 05:26:46;;;;;;;;;;;-3.80;100.00;;;;;;6057285;23;20324;-66
2024/01/08 05:29:13;;;;;;;;;;;-3.90;100.00;;;;;;6057116;23;19921;-66
2024/01/08 05:31:40;;;;;;;;;;;-3.90;100.00;;;;;;6057181;23;19921;-66
2024/01/08 05:34:07;;;;;;;;;;;-3.90;100.00;;;;;;6058564;23;19956;-66
2024/01/08 05:36:34;;;;;;;;;;;-4.00;100.00;;;;;;6058429;23;19927;-66
2024/01/08 05:39:01;;;;;;;;;;;-4.00;100.00;;;;;;6058345;23;20544;-66
2024/01/08 05:41:27;;;;;;;;;;;-3.90;100.00;;;;;;6058413;23;19957;-66
2024/01/08 05:43:54;;;;;;;;;;;-3.90;100.00;;;;;;6059136;23;19922;-66
2024/01/08 05:46:21;;;;;;;;;;;-3.90;100.00;;;;;;6058872;23;19917;-66
2024/01/08 05:48:49;;;;;;;;;;;-3.90;100.00;;;;;;6059662;23;20400;-66
2024/01/08 05:51:17;;;;;;;;;;;-3.90;100.00;;;;;;6058789;23;19921;-66
2024/01/08 05:53:44;;;;;;;;;;;-3.80;100.00;;;;;;6056589;23;19921;-66
2024/01/08 05:56:11;;;;;;;;;;;-3.80;100.00;;;;;;6058330;23;19917;-66
2024/01/08 05:58:37;;;;;;;;;;;-3.90;100.00;;;;;;6033667;23;19948;-66
2024/01/08 06:01:04;;;;;;;;;;;-3.90;100.00;;;;;;6057737;23;20395;-66
2024/01/08 06:03:31;;;;;;;;;;;-3.90;100.00;;;;;;6032698;23;20326;-66
2024/01/08 06:05:58;;;;;;;;;;;-4.00;100.00;;;;;;6038623;23;19917;-66
2024/01/08 06:08:25;;;;;;;;;;;-4.00;100.00;;;;;;6058090;23;19985;-66
2024/01/08 06:10:52;;;;;;;;;;;-4.00;100.00;;;;;;6066657;23;19992;-67
2024/01/08 06:13:19;;;;;;;;;;;-4.00;100.00;;;;;;6115217;23;19925;-67
2024/01/08 06:15:45;;;;;;;;;;;-4.00;100.00;;;;;;6089527;23;19952;-65
2024/01/08 06:18:12;;;;;;;;;;;-4.00;100.00;;;;;;6090117;23;19920;-67
2024/01/08 06:20:39;;;;;;;;;;;-4.00;100.00;;;;;;6116727;23;19927;-66
2024/01/08 06:23:06;;;;;;;;;;;-4.00;100.00;;;;;;6116949;23;19944;-66
2024/01/08 06:25:33;;;;;;;;;;;-3.90;100.00;;;;;;6090660;23;19921;-68
2024/01/08 06:28:00;;;;;;;;;;;-3.90;100.00;;;;;;6090031;23;20469;-66
2024/01/08 06:30:26;;;;;;;;;;;-3.90;100.00;;;;;;6116672;23;19928;-67
2024/01/08 06:32:53;;;;;;;;;;;-3.90;100.00;;;;;;6116475;23;19996;-67
2024/01/08 06:35:20;;;;;;;;;;;-3.90;100.00;;;;;;6116192;23;19968;-67
2024/01/08 06:37:47;;;;;;;;;;;-3.90;100.00;;;;;;6115817;23;19931;-66
2024/01/08 06:40:14;;;;;;;;;;;-3.80;100.00;;;;;;6090309;23;20542;-66
2024/01/08 06:42:43;;;;;;;;;;;-3.80;100.00;;;;;;6115409;23;19921;-65
2024/01/08 06:45:26;;;;;;;;;;;-3.80;100.00;;;;;;6113925;23;19960;-65
2024/01/08 06:47:53;;;;;;;;;;;-3.80;100.00;;;;;;6114753;23;20570;-66
2024/01/08 06:50:20;;;;;;;;;;;-3.80;100.00;;;;;;6115174;23;19927;-65
2024/01/08 06:52:47;;;;;;;;;;;-3.80;100.00;;;;;;6116706;23;19921;-65
2024/01/08 06:55:15;;;;;;;;;;;-3.80;100.00;;;;;;6114533;23;20378;-65
2024/01/08 06:57:42;;;;;;;;;;;-3.80;100.00;;;;;;6115034;23;19967;-66
2024/01/08 07:00:09;;;;;;;;;;;-3.80;100.00;;;;;;6087524;23;20813;-66
2024/01/08 07:02:37;;;;;;;;;;;-3.80;100.00;;;;;;6089471;23;19921;-66
2024/01/08 07:05:04;;;;;;;;;;;-3.70;100.00;;;;;;6114197;23;19927;-66
2024/01/08 07:07:31;;;;;;;;;;;-3.70;100.00;;;;;;6115174;23;19925;-66
2024/01/08 07:09:58;;;;;;;;;;;-3.70;100.00;;;;;;6113870;23;20323;-66
2024/01/08 07:12:24;;;;;;;;;;;-3.70;100.00;;;;;;6115097;23;19959;-66
2024/01/08 07:14:52;;;;;;;;;;;-3.70;100.00;;;;;;6116269;23;19921;-65
2024/01/08 07:17:20;;;;;;;;;;;-3.60;100.00;;;;;;6116265;23;20370;-66
2024/01/08 07:19:48;;;;;;;;;;;-3.60;100.00;;;;;;6090504;23;19936;-65
2024/01/08 07:22:15;;;;;;;;;;;-3.60;100.00;;;;;;6115170;23;19944;-65
2024/01/08 07:24:42;;;;;;;;;;;-3.60;100.00;;;;;;6116469;23;20278;-66
2024/01/08 07:27:09;;;;;;;;;;;-3.60;100.00;;;;;;6116298;23;19929;-65
2024/01/08 07:29:36;;;;;;;;;;;-3.60;100.00;;;;;;6115999;23;20286;-66
2024/01/08 07:32:03;;;;;;;;;;;-3.60;100.00;;;;;;6116472;23;19948;-66
2024/01/08 07:34:30;;;;;;;;;;;-3.50;100.00;;;;;;6116153;23;19932;-65
2024/01/08 07:36:57;;;;;;;;;;;-3.50;100.00;;;;;;6089873;23;20004;-65
2024/01/08 07:39:24;;;;;;;;;;;-3.40;100.00;;;;;;6089284;23;19921;-65
2024/01/08 07:41:51;;;;;;;;;;;-3.40;100.00;;;;;;6115546;23;20370;-65
2024/01/08 07:44:17;;;;;;;;;;;-3.30;100.00;;;;;;6115938;23;19917;-65
2024/01/08 07:46:45;;;;;;;;;;;-3.20;100.00;;;;;;6116528;23;19976;-65
2024/01/08 07:49:12;;;;;;;;;;;-3.20;100.00;;;;;;6089957;23;19916;-65
2024/01/08 07:51:40;;;;;;;;;;;-3.10;100.00;;;;;;6116250;23;19983;-65
2024/01/08 07:54:07;;;;;;;;;;;-3.00;100.00;;;;;;6089836;23;19920;-65
2024/01/08 07:56:36;;;;;;;;;;;-3.00;100.00;;;;;;6090165;23;19971;-65
2024/01/08 07:59:15;;;;;;;;;;;-2.90;100.00;;;;;;6092703;23;19928;-65
2024/01/08 08:01:42;;;;;;;;;;;-2.80;100.00;;;;;;6115698;23;19928;-65
2024/01/08 08:04:09;;;;;;;;;;;-2.80;100.00;;;;;;6115997;23;20259;-65
2024/01/08 08:06:36;;;;;;;;;;;-2.70;100.00;;;;;;6118435;23;19924;-66
2024/01/08 08:09:03;;;;;;;;;;;-2.60;100.00;;;;;;6115972;23;20268;-73
2024/01/08 08:11:29;;;;;;;;;;;-2.60;100.00;;;;;;6114831;23;19976;-73
2024/01/08 08:13:56;;;;;;;;;;;-2.60;100.00;;;;;;6115630;23;19943;-73
2024/01/08 08:16:24;;;;;;;;;;;-2.50;100.00;;;;;;6089392;23;19920;-72
2024/01/08 08:18:51;;;;;;;;;;;-2.40;100.00;;;;;;6115374;23;19921;-72
2024/01/08 08:21:18;;;;;;;;;;;-2.40;100.00;;;;;;6090434;23;19924;-72
2024/01/08 08:23:45;;;;;;;;;;;-2.40;100.00;;;;;;6118852;23;19925;-72
2024/01/08 08:26:12;;;;;;;;;;;-2.30;100.00;;;;;;6116456;23;19944;-65
2024/01/08 08:28:43;;;;;;;;;;;-2.20;100.00;;;;;;6116985;23;19968;-65
2024/01/08 08:31:10;;;;;;;;;;;-2.20;100.00;;;;;;6116064;23;20390;-71
2024/01/08 08:33:38;;;;;;;;;;;-2.10;100.00;;;;;;6115043;23;19921;-72
2024/01/08 08:36:05;;;;;;;;;;;-2.10;100.00;;;;;;6114533;23;19972;-66
2024/01/08 08:38:32;;;;;;;;;;;-2.10;100.00;;;;;;6088411;23;20077;-67
2024/01/08 08:40:59;;;;;;;;;;;-2.00;100.00;;;;;;6089118;23;19920;-66
2024/01/08 08:43:26;;;;;;;;;;;-2.00;100.00;;;;;;6090269;23;19963;-66
2024/01/08 08:45:53;;;;;;;;;;;-1.90;100.00;;;;;;6115531;23;19976;-66
2024/01/08 08:48:19;;;;;;;;;;;-1.90;100.00;;;;;;6115054;23;19925;-66
2024/01/08 08:50:46;;;;;;;;;;;-1.80;100.00;;;;;;6114648;23;19956;-66
2024/01/08 08:53:13;;;;;;;;;;;-1.70;100.00;;;;;;6113946;23;20521;-66
2024/01/08 08:55:40;;;;;;;;;;;-1.70;100.00;;;;;;6111368;23;19929;-66
2024/01/08 08:58:09;;;;;;;;;;;-1.60;100.00;;;;;;6087516;23;19968;-66
2024/01/08 09:00:36;;;;;;;;;;;-1.60;100.00;;;;;;6113045;23;20319;-67
2024/01/08 09:03:03;;;;;;;;;;;-1.50;100.00;;;;;;6112792;23;19921;-66
2024/01/08 09:05:30;;;;;;;;;;;-1.40;100.00;;;;;;6113185;23;19984;-66
2024/01/08 09:08:06;;;;;;;;;;;-1.40;100.00;;;;;;6116501;23;19976;-66
2024/01/08 09:10:33;;;;;;;;;;;-1.40;100.00;;;;;;6117850;23;19916;-65
2024/01/08 09:13:00;;;;;;;;;;;-1.40;100.00;;;;;;6144675;23;19928;-65
2024/01/08 09:15:27;;;;;;;;;;;-1.30;100.00;;;;;;6121453;23;19920;-66
2024/01/08 09:17:53;;;;;;;;;;;-1.30;100.00;;;;;;6147630;23;20437;-66
2024/01/08 09:20:21;;;;;;;;;;;-1.20;100.00;;;;;;6120856;23;19950;-65
2024/01/08 09:22:48;;;;;;;;;;;-1.20;100.00;;;;;;6146857;23;19916;-65
2024/01/08 09:25:15;;;;;;;;;;;-1.20;100.00;;;;;;6145565;23;19924;-65
2024/01/08 09:27:42;;;;;;;;;;;-1.20;100.00;;;;;;6122826;23;19923;-66
2024/01/08 09:30:09;;;;;;;;;;;-1.10;100.00;;;;;;6148313;23;19927;-65
2024/01/08 09:32:36;;;;;;;;;;;-1.10;100.00;;;;;;6121807;23;20003;-66
2024/01/08 09:35:03;;;;;;;;;;;-1.10;100.00;;;;;;6120197;23;19920;-65
2024/01/08 09:37:29;;;;;;;;;;;-1.10;100.00;;;;;;6146994;23;19929;-66
2024/01/08 09:39:56;;;;;;;;;;;-1.00;100.00;;;;;;6148274;23;19931;-72
2024/01/08 09:42:26;;;;;;;;;;;-1.00;100.00;;;;;;6120588;23;19924;-71
2024/01/08 09:44:53;;;;;;;;;;;-0.90;100.00;;;;;;6147219;23;19920;-71
2024/01/08 09:47:20;;;;;;;;;;;-0.90;100.00;;;;;;6165051;23;20187;-71
2024/01/08 09:49:47;;;;;;;;;;;-0.80;100.00;;;;;;6206924;23;20285;-71
2024/01/08 09:52:14;;;;;;;;;;;-0.80;100.00;;;;;;6180534;23;19920;-72
2024/01/08 09:54:42;;;;;;;;;;;-0.80;100.00;;;;;;6208242;23;19919;-71
2024/01/08 09:57:09;;;;;;;;;;;-0.80;100.00;;;;;;6208109;23;19920;-70
2024/01/08 09:59:36;;;;;;;;;;;-0.70;100.00;;;;;;6208666;23;20000;-72
2024/01/08 10:02:03;;;;;;;;;;;-0.60;100.00;;;;;;6208320;23;20019;-71
2024/01/08 10:04:30;;;;;;;;;;;-0.60;100.00;;;;;;6208754;23;20613;-66
2024/01/08 10:07:04;;;;;;;;;;;-0.60;100.00;;;;;;6207639;23;20227;-66
2024/01/08 10:09:34;;;;;;;;;;;-0.50;100.00;;;;;;6208085;23;19919;-66
2024/01/08 10:12:01;;;;;;;;;;;-0.50;100.00;;;;;;6208282;23;19944;-66
2024/01/08 10:14:27;;;;;;;;;;;-0.50;100.00;;;;;;6208172;23;19920;-66
2024/01/08 10:16:55;;;;;;;;;;;-0.50;100.00;;;;;;6208143;23;19928;-66
2024/01/08 10:19:28;;;;;;;;;;;-0.50;100.00;;;;;;6182480;23;19993;-67
2024/01/08 10:22:02;;;;;;;;;;;-0.40;100.00;;;;;;6179882;23;19926;-67
2024/01/08 10:24:28;;;;;;;;;;;-0.40;100.00;;;;;;6206042;23;19920;-66
2024/01/08 10:26:55;;;;;;;;;;;-0.40;100.00;;;;;;6179565;23;19925;-67
2024/01/08 10:32:51;;;;;;;;;;;-0.30;100.00;;;;;;6235035;22;19938;-67
2024/01/08 10:35:18;;;;;;;;;;;-0.30;100.00;;;;;;6236552;23;19961;-66
2024/01/08 10:37:46;;;;;;;;;;;-0.40;100.00;;;;;;6236978;23;19919;-66
2024/01/08 10:40:13;;;;;;;;;;;-0.40;100.00;;;;;;6236982;23;19969;-67
2024/01/08 10:42:44;;;;;;;;;;;-0.30;100.00;;;;;;6208488;23;20775;-66
2024/01/08 10:45:11;;;;;;;;;;;-0.30;100.00;;;;;;6236174;23;19980;-67
2024/01/08 10:47:43;;;;;;;;;;;-0.30;100.00;;;;;;6235568;23;19955;-67
2024/01/08 10:50:11;;;;;;;;;;;-0.40;100.00;;;;;;6236392;23;19921;-68
2024/01/08 10:52:44;;;;;;;;;;;-0.30;100.00;;;;;;6235985;23;20025;-67
2024/01/08 10:55:12;;;;;;;;;;;-0.20;100.00;;;;;;6234622;23;19919;-67
2024/01/08 10:57:39;;;;;;;;;;;-0.10;100.00;;;;;;6234042;23;19919;-68
2024/01/08 11:00:09;;;;;;;;;;;0.00;100.00;;;;;;6235604;23;19942;-66
2024/01/08 11:02:37;;;;;;;;;;;0.00;100.00;;;;;;6235026;23;20692;-66
2024/01/08 11:05:07;;;;;;;;;;;0.20;100.00;;;;;;6209414;23;20022;-66
2024/01/08 11:07:36;;;;;;;;;;;0.50;100.00;;;;;;6234768;23;20384;-66
2024/01/08 11:10:03;;;;;;;;;;;0.80;100.00;;;;;;6234731;23;19993;-66
2024/01/08 11:12:30;;;;;;;;;;;0.80;100.00;;;;;;6236367;23;20603;-66
2024/01/08 11:15:01;;;;;;;;;;;0.90;100.00;;;;;;6234848;23;19959;-70
2024/01/08 11:17:28;;;;;;;;;;;0.90;100.00;;;;;;6235027;23;19919;-70
2024/01/08 11:19:57;;;;;;;;;;;0.90;100.00;;;;;;6235291;23;19926;-70
2024/01/08 11:22:24;;;;;;;;;;;1.10;100.00;;;;;;6234775;23;19923;-70
2024/01/08 11:24:56;;;;;;;;;;;1.10;100.00;;;;;;6234203;23;19919;-71
2024/01/08 11:27:23;;;;;;;;;;;1.20;100.00;;;;;;6233984;23;19927;-71
2024/01/08 11:30:01;;;;;;;;;;;1.30;100.00;;;;;;6234845;23;20319;-71
2024/01/08 11:32:37;;;;;;;;;;;1.30;100.00;;;;;;6234010;23;19969;-70
2024/01/08 11:35:06;;;;;;;;;;;1.40;100.00;;;;;;6235679;23;19931;-70
2024/01/08 11:37:34;;;;;;;;;;;1.50;100.00;;;;;;6235405;23;19920;-70
2024/01/08 11:40:03;;;;;;;;;;;1.40;100.00;;;;;;6235575;23;19923;-70
2024/01/08 11:42:30;;;;;;;;;;;1.80;100.00;;;;;;6236380;23;19920;-69
2024/01/08 11:44:58;;;;;;;;;;;1.90;100.00;;;;;;6209039;23;19926;-70
2024/01/08 11:47:25;;;;;;;;;;;2.30;100.00;;;;;;6236081;23;19920;-70
2024/01/08 11:49:52;;;;;;;;;;;3.00;100.00;;;;;;6236064;23;19920;-71
2024/01/08 11:52:19;;;;;;;;;;;3.30;100.00;;;;;;6235928;23;19966;-71
2024/01/08 11:54:49;;;;;;;;;;;3.40;100.00;;;;;;6235485;23;19927;-70
2024/01/08 11:57:17;;;;;;;;;;;3.70;100.00;;;;;;6235985;23;19994;-69
2024/01/08 11:59:45;;;;;;;;;;;4.00;99.80;;;;;;6235888;23;19945;-69
2024/01/08 12:02:16;;;;;;;;;;;3.50;98.40;;;;;;6235469;23;20329;-70
2024/01/08 12:04:59;;;;;;;;;;;2.90;100.00;;;;;;6208825;23;20462;-71
2024/01/08 12:07:27;;;;;;;;;;;2.40;100.00;;;;;;6235059;23;20198;-70
2024/01/08 12:09:54;;;;;;;;;;;2.20;100.00;;;;;;6234828;23;19919;-71
2024/01/08 12:12:23;;;;;;;;;;;2.70;100.00;;;;;;6207848;23;19919;-71
2024/01/08 12:14:49;;;;;;;;;;;3.40;100.00;;;;;;6233407;23;19974;-71
2024/01/08 12:17:17;;;;;;;;;;;3.50;100.00;;;;;;6235530;23;19923;-70
2024/01/08 12:19:48;;;;;;;;;;;2.90;98.50;;;;;;6235167;23;19969;-70
2024/01/08 12:22:17;;;;;;;;;;;2.30;100.00;;;;;;6235386;23;19943;-71
2024/01/08 12:24:45;;;;;;;;;;;1.80;100.00;;;;;;6235987;23;19927;-70
2024/01/08 12:27:14;;;;;;;;;;;1.50;100.00;;;;;;6209066;23;19924;-70
2024/01/08 12:29:42;;;;;;;;;;;1.20;100.00;;;;;;6236093;23;19919;-70
2024/01/08 12:32:09;;;;;;;;;;;1.00;100.00;;;;;;6234925;23;20419;-70
2024/01/08 12:34:37;;;;;;;;;;;0.60;100.00;;;;;;6209301;23;19919;-71
2024/01/08 12:37:07;;;;;;;;;;;0.60;100.00;;;;;;6235095;23;19923;-71
2024/01/08 12:39:34;;;;;;;;;;;0.60;100.00;;;;;;6234186;23;20695;-70
2024/01/08 12:42:02;;;;;;;;;;;0.90;100.00;;;;;;6233995;23;19926;-71
2024/01/08 12:44:29;;;;;;;;;;;1.20;100.00;;;;;;6234852;23;19919;-71
2024/01/08 12:46:56;;;;;;;;;;;1.40;100.00;;;;;;6234479;23;19977;-70
2024/01/08 12:49:24;;;;;;;;;;;1.80;100.00;;;;;;6234224;23;20330;-71
2024/01/08 12:51:52;;;;;;;;;;;2.40;100.00;;;;;;6234451;23;19926;-71
2024/01/08 12:54:19;;;;;;;;;;;3.10;100.00;;;;;;6207255;23;19919;-71
2024/01/08 12:56:46;;;;;;;;;;;3.60;97.60;;;;;;6233819;23;19920;-71
2024/01/08 12:59:13;;;;;;;;;;;4.20;92.20;;;;;;6233576;23;20345;-71
2024/01/08 13:01:41;;;;;;;;;;;4.10;93.30;;;;;;6234006;23;20007;-71
2024/01/08 13:04:11;;;;;;;;;;;5.00;87.30;;;;;;6234810;23;19926;-71
2024/01/08 13:06:40;;;;;;;;;;;6.00;78.60;;;;;;6208743;23;20026;-71
2024/01/08 13:09:07;;;;;;;;;;;6.40;75.60;;;;;;6235767;23;19925;-71
2024/01/08 13:11:35;;;;;;;;;;;6.80;72.90;;;;;;6235220;23;19924;-71
2024/01/08 13:14:04;;;;;;;;;;;7.60;67.70;;;;;;6235373;23;20240;-72
2024/01/08 13:16:31;;;;;;;;;;;7.70;66.20;;;;;;6208917;23;19919;-71
2024/01/08 13:18:58;;;;;;;;;;;7.40;68.10;;;;;;6235335;23;20325;-71
2024/01/08 13:21:25;;;;;;;;;;;6.50;68.90;;;;;;6235022;23;19959;-71
2024/01/08 13:23:52;;;;;;;;;;;5.20;75.60;;;;;;6234180;23;19991;-71
2024/01/08 13:26:19;;;;;;;;;;;4.20;83.30;;;;;;6234501;23;19958;-65
2024/01/08 13:28:46;;;;;;;;;;;3.50;90.40;;;;;;6235048;23;19930;-65
2024/01/08 13:31:13;;;;;;;;;;;3.10;93.00;;;;;;6207529;23;19919;-65
2024/01/08 13:33:39;;;;;;;;;;;2.80;100.00;;;;;;6235551;23;19966;-65
2024/01/08 13:36:09;;;;;;;;;;;2.30;100.00;;;;;;6234260;23;20019;-65
2024/01/08 13:38:36;;;;;;;;;;;1.70;100.00;;;;;;6233241;23;19985;-65
2024/01/08 13:41:03;;;;;;;;;;;1.80;100.00;;;;;;6232314;23;20007;-65
2024/01/08 13:43:31;;;;;;;;;;;2.00;100.00;;;;;;6232789;23;19919;-65
2024/01/08 13:45:58;;;;;;;;;;;2.20;100.00;;;;;;6232481;23;19950;-65
2024/01/08 13:48:24;;;;;;;;;;;2.70;100.00;;;;;;6232409;23;19989;-65
2024/01/08 13:50:52;;;;;;;;;;;2.90;97.20;;;;;;6232855;23;19926;-66
2024/01/08 13:53:19;;;;;;;;;;;2.70;100.00;;;;;;6234386;23;19923;-65
2024/01/08 13:55:46;;;;;;;;;;;2.20;100.00;;;;;;6208119;23;19924;-65
2024/01/08 13:58:13;;;;;;;;;;;1.90;100.00;;;;;;6208763;23;19919;-65
2024/01/08 14:00:41;;;;;;;;;;;1.80;100.00;;;;;;6237148;23;19919;-66
2024/01/08 14:03:08;;;;;;;;;;;1.80;100.00;;;;;;6236906;23;19919;-66
2024/01/08 14:05:36;;;;;;;;;;;1.70;100.00;;;;;;6236221;23;19958;-65
2024/01/08 14:08:03;;;;;;;;;;;1.90;100.00;;;;;;6236861;23;20533;-66
2024/01/08 14:10:30;;;;;;;;;;;2.20;100.00;;;;;;6236852;23;19925;-66
2024/01/08 14:13:00;;;;;;;;;;;1.90;100.00;;;;;;6236849;23;20287;-66